createdAt,value
2018-03-02T00:00:23.895Z,18.07
2018-03-02T00:02:52.393Z,17.80
2018-03-02T00:05:20.671Z,17.27
2018-03-02T00:07:52.303Z,17.07
2018-03-02T00:10:20.595Z,17.40
2018-03-02T00:12:51.591Z,17.57
2018-03-02T00:15:20.002Z,16.50
2018-03-02T00:17:48.292Z,16.63
2018-03-02T00:20:16.597Z,17.93
2018-03-02T00:22:47.056Z,16.97
2018-03-02T00:25:18.066Z,16.63
2018-03-02T00:27:53.223Z,16.77
2018-03-02T00:30:27.270Z,19.47
2018-03-02T00:32:57.123Z,16.47
2018-03-02T00:35:26.116Z,16.17
2018-03-02T00:37:54.935Z,17.00
2018-03-02T00:40:23.388Z,18.40
2018-03-02T00:43:00.223Z,20.30
2018-03-02T00:45:29.209Z,16.20
2018-03-02T00:47:57.900Z,16.00
2018-03-02T00:50:26.198Z,15.93
2018-03-02T00:52:56.279Z,16.63
2018-03-02T00:55:24.579Z,14.93
2018-03-02T00:58:08.246Z,16.90
2018-03-02T01:00:39.788Z,17.57
2018-03-02T01:03:13.117Z,17.00
2018-03-02T01:05:42.672Z,18.63
2018-03-02T01:08:10.943Z,14.53
2018-03-02T01:10:40.264Z,14.83
2018-03-02T01:13:08.567Z,14.63
2018-03-02T01:15:38.755Z,15.73
2018-03-02T01:18:09.772Z,14.27
2018-03-02T01:20:39.593Z,15.27
2018-03-02T01:23:15.081Z,15.33
2018-03-02T01:25:46.196Z,15.27
2018-03-02T01:28:50.192Z,16.97
2018-03-02T01:31:25.615Z,15.37
2018-03-02T01:34:00.461Z,13.80
2018-03-02T01:36:31.241Z,15.63
2018-03-02T01:38:59.591Z,17.83
2018-03-02T01:41:30.515Z,16.30
2018-03-02T01:43:58.960Z,13.80
2018-03-02T01:46:28.435Z,12.97
2018-03-02T01:48:58.291Z,14.93
2018-03-02T01:51:44.038Z,15.10
2018-03-02T01:54:12.733Z,17.83
2018-03-02T01:56:43.077Z,15.20
2018-03-02T01:59:12.836Z,15.60
2018-03-02T02:01:42.810Z,16.10
2018-03-02T02:04:14.403Z,14.37
2018-03-02T02:06:43.325Z,15.40
2018-03-02T02:09:14.947Z,15.47
2018-03-02T02:11:44.220Z,17.03
2018-03-02T02:14:15.751Z,14.90
2018-03-02T02:16:45.929Z,15.63
2018-03-02T02:19:14.605Z,15.97
2018-03-02T02:21:42.940Z,15.10
2018-03-02T02:24:11.636Z,14.73
2018-03-02T02:26:41.238Z,15.60
2018-03-02T02:32:56.176Z,16.33
2018-03-02T02:35:24.664Z,17.50
2018-03-02T02:37:55.195Z,18.93
2018-03-02T02:40:30.346Z,14.97
2018-03-02T02:43:03.331Z,15.07
2018-03-02T02:45:40.151Z,19.10
2018-03-02T02:48:10.728Z,16.70
2018-03-02T02:50:39.026Z,15.83
2018-03-02T02:53:07.986Z,17.37
2018-03-02T02:55:36.824Z,17.23
2018-03-02T02:58:06.447Z,16.67
2018-03-02T03:00:34.785Z,18.93
2018-03-02T03:03:03.236Z,17.13
2018-03-02T03:05:34.164Z,15.67
2018-03-02T03:08:02.641Z,16.40
2018-03-02T03:10:31.194Z,15.17
2018-03-02T03:12:59.482Z,16.50
2018-03-02T03:15:28.340Z,16.93
2018-03-02T03:17:58.612Z,16.90
2018-03-02T03:20:26.908Z,17.10
2018-03-02T03:22:56.432Z,17.07
2018-03-02T03:25:24.727Z,17.17
2018-03-02T03:27:57.161Z,18.37
2018-03-02T03:31:08.600Z,19.97
2018-03-02T03:33:42.382Z,18.23
2018-03-02T03:36:18.430Z,18.47
2018-03-02T03:38:48.078Z,19.53
2018-03-02T03:41:17.010Z,17.03
2018-03-02T03:43:45.479Z,19.77
2018-03-02T03:46:13.774Z,19.40
2018-03-02T03:48:46.190Z,19.40
2018-03-02T03:51:15.486Z,19.93
2018-03-02T03:53:48.884Z,20.50
2018-03-02T03:56:25.291Z,17.40
2018-03-02T03:58:55.214Z,20.60
2018-03-02T04:01:23.534Z,22.30
2018-03-02T04:03:52.811Z,18.80
2018-03-02T04:06:22.327Z,19.73
2018-03-02T04:08:52.414Z,20.60
2018-03-02T04:11:20.725Z,19.73
2018-03-02T04:13:58.737Z,19.60
2018-03-02T04:17:08.420Z,19.27
2018-03-02T04:19:38.875Z,19.67
2018-03-02T04:22:07.772Z,17.50
2018-03-02T04:24:36.110Z,17.03
2018-03-02T04:27:05.368Z,18.67
2018-03-02T04:29:34.947Z,20.37
2018-03-02T04:32:04.010Z,20.30
2018-03-02T04:34:39.285Z,21.70
2018-03-02T04:37:08.164Z,21.43
2018-03-02T04:39:36.446Z,22.43
2018-03-02T04:42:04.775Z,19.90
2018-03-02T04:44:33.073Z,18.47
2018-03-02T04:47:37.564Z,15.97
2018-03-02T04:50:16.120Z,18.70
2018-03-02T04:52:44.545Z,20.50
2018-03-02T04:55:16.995Z,18.80
2018-03-02T04:57:52.027Z,17.90
2018-03-02T05:00:20.478Z,19.30
2018-03-02T05:03:11.065Z,22.13
2018-03-02T05:05:40.334Z,20.27
2018-03-02T05:08:11.047Z,18.93
2018-03-02T05:10:46.427Z,19.47
2018-03-02T05:13:21.684Z,20.80
2018-03-02T05:15:54.004Z,19.60
2018-03-02T05:18:31.876Z,20.50
2018-03-02T05:21:05.899Z,21.03
2018-03-02T05:23:40.802Z,20.20
2018-03-02T05:26:13.186Z,20.63
2018-03-02T05:28:42.412Z,18.73
2018-03-02T05:31:13.423Z,19.23
2018-03-02T05:33:41.993Z,20.87
2018-03-02T05:36:12.334Z,22.30
2018-03-02T05:38:48.619Z,20.97
2018-03-02T05:41:17.204Z,21.20
2018-03-02T05:43:45.502Z,21.80
2018-03-02T05:46:14.391Z,19.83
2018-03-02T05:48:46.189Z,23.90
2018-03-02T05:51:16.005Z,19.83
2018-03-02T05:53:45.947Z,26.93
2018-03-02T05:56:14.244Z,23.43
2018-03-02T05:58:42.523Z,23.90
2018-03-02T06:01:10.811Z,23.20
2018-03-02T06:04:00.802Z,25.70
2018-03-02T06:06:29.968Z,21.50
2018-03-02T06:08:59.487Z,22.70
2018-03-02T06:11:31.350Z,21.17
2018-03-02T06:14:04.159Z,22.40
2018-03-02T06:16:32.478Z,20.63
2018-03-02T06:19:01.011Z,24.53
2018-03-02T06:21:30.460Z,23.77
2018-03-02T06:23:59.800Z,24.33
2018-03-02T06:26:30.092Z,19.63
2018-03-02T06:29:03.057Z,21.53
2018-03-02T06:31:40.744Z,23.47
2018-03-02T06:34:51.896Z,20.17
2018-03-02T06:37:21.897Z,24.57
2018-03-02T06:39:52.839Z,23.17
2018-03-02T06:42:27.320Z,21.07
2018-03-02T06:45:04.793Z,21.47
2018-03-02T06:47:56.167Z,24.03
2018-03-02T06:50:24.831Z,25.87
2018-03-02T06:52:53.317Z,22.70
2018-03-02T06:55:24.055Z,21.77
2018-03-02T06:57:57.314Z,20.00
2018-03-02T07:00:29.833Z,21.77
2018-03-02T07:07:00.784Z,22.70
2018-03-02T07:09:29.862Z,25.50
2018-03-02T07:11:58.344Z,27.77
2018-03-02T07:14:31.904Z,23.53
2018-03-02T07:17:07.921Z,25.77
2018-03-02T07:19:40.940Z,24.17
2018-03-02T07:22:09.453Z,23.77
2018-03-02T07:24:38.959Z,24.03
2018-03-02T07:27:07.275Z,22.00
2018-03-02T07:29:35.619Z,24.10
2018-03-02T07:32:05.663Z,22.90
2018-03-02T07:34:55.916Z,25.47
2018-03-02T07:37:27.234Z,29.23
2018-03-02T07:39:55.523Z,23.33
2018-03-02T07:42:25.106Z,23.43
2018-03-02T07:44:59.993Z,22.07
2018-03-02T07:47:32.012Z,24.67
2018-03-02T07:50:21.602Z,24.77
2018-03-02T07:52:50.198Z,26.80
2018-03-02T07:55:19.334Z,26.43
2018-03-02T07:57:53.614Z,23.47
2018-03-02T08:00:21.912Z,26.53
2018-03-02T08:02:50.210Z,25.80
2018-03-02T08:05:42.454Z,27.63
2018-03-02T08:08:12.320Z,21.70
2018-03-02T08:10:47.869Z,27.67
2018-03-02T08:13:16.174Z,25.43
2018-03-02T08:15:44.841Z,26.47
2018-03-02T08:18:13.782Z,24.17
2018-03-02T08:20:43.733Z,24.40
2018-03-02T08:23:12.741Z,26.93
2018-03-02T08:25:47.284Z,29.47
2018-03-02T08:28:21.410Z,25.60
2018-03-02T08:30:50.726Z,26.70
2018-03-02T08:33:19.022Z,21.07
2018-03-02T08:35:47.369Z,26.10
2018-03-02T08:38:16.428Z,27.83
2018-03-02T08:40:46.234Z,30.17
2018-03-02T08:43:16.502Z,32.47
2018-03-02T08:45:45.763Z,27.30
2018-03-02T08:48:17.254Z,30.77
2018-03-02T08:50:45.530Z,27.40
2018-03-02T08:53:14.332Z,26.80
2018-03-02T08:55:43.448Z,25.87
2018-03-02T08:58:19.039Z,25.20
2018-03-02T09:00:54.149Z,33.30
2018-03-02T09:03:25.765Z,26.27
2018-03-02T09:05:57.297Z,32.23
2018-03-02T09:08:26.345Z,26.83
2018-03-02T09:10:54.634Z,30.57
2018-03-02T09:13:24.543Z,29.20
2018-03-02T09:15:54.136Z,29.27
2018-03-02T09:18:25.395Z,27.43
2018-03-02T09:20:55.811Z,27.90
2018-03-02T09:23:35.939Z,32.40
2018-03-02T09:26:12.292Z,26.47
2018-03-02T09:28:46.278Z,28.70
2018-03-02T09:31:16.884Z,31.63
2018-03-02T09:33:48.092Z,30.53
2018-03-02T09:36:18.377Z,29.60
2018-03-02T09:38:47.891Z,28.20
2018-03-02T09:41:16.954Z,30.83
2018-03-02T09:43:45.834Z,30.87
2018-03-02T09:46:20.723Z,33.00
2018-03-02T09:48:51.619Z,29.53
2018-03-02T09:51:20.246Z,29.47
2018-03-02T09:53:49.487Z,29.03
2018-03-02T09:56:17.796Z,31.83
2018-03-02T09:58:46.223Z,29.30
2018-03-02T10:01:19.472Z,29.57
2018-03-02T10:03:54.404Z,31.37
2018-03-02T10:06:29.051Z,31.17
2018-03-02T10:08:58.637Z,33.53
2018-03-02T10:11:26.930Z,30.80
2018-03-02T10:13:55.247Z,30.63
2018-03-02T10:16:23.575Z,27.30
2018-03-02T10:18:53.290Z,29.33
2018-03-02T10:21:45.962Z,28.77
2018-03-02T10:24:15.058Z,32.43
2018-03-02T10:26:43.379Z,39.20
2018-03-02T10:29:15.993Z,27.37
2018-03-02T10:31:48.720Z,29.23
2018-03-02T10:34:24.556Z,30.27
2018-03-02T10:36:59.904Z,33.27
2018-03-02T10:39:35.947Z,30.97
2018-03-02T10:42:04.269Z,31.30
2018-03-02T10:44:32.547Z,31.53
2018-03-02T10:47:00.861Z,27.93
2018-03-02T10:49:29.164Z,27.43
2018-03-02T10:52:05.344Z,30.73
2018-03-02T10:54:34.214Z,32.10
2018-03-02T10:57:02.502Z,27.17
2018-03-02T10:59:31.739Z,31.63
2018-03-02T11:02:07.254Z,28.90
2018-03-02T11:04:36.103Z,35.53
2018-03-02T11:07:04.562Z,27.80
2018-03-02T11:09:33.559Z,33.93
2018-03-02T11:12:06.022Z,32.00
2018-03-02T11:14:37.174Z,31.70
2018-03-02T11:17:05.454Z,31.20
2018-03-02T11:19:34.451Z,30.17
2018-03-02T11:22:09.635Z,30.33
2018-03-02T11:24:37.912Z,38.43
2018-03-02T11:27:06.208Z,30.13
2018-03-02T11:29:40.972Z,31.97
2018-03-02T11:32:12.571Z,30.53
2018-03-02T11:34:44.616Z,28.67
2018-03-02T11:37:19.226Z,31.27
2018-03-02T11:39:54.256Z,29.80
2018-03-02T11:42:28.832Z,32.27
2018-03-02T11:45:04.313Z,29.33
2018-03-02T11:47:37.718Z,32.13
2018-03-02T11:50:06.250Z,31.30
2018-03-02T11:52:35.092Z,32.90
2018-03-02T11:55:06.141Z,31.30
2018-03-02T11:57:34.458Z,32.80
2018-03-02T12:00:03.124Z,29.43
2018-03-02T12:02:37.728Z,27.57
2018-03-02T12:05:09.293Z,27.30
2018-03-02T12:07:42.481Z,29.57
2018-03-02T12:10:10.784Z,32.27
2018-03-02T12:12:39.322Z,31.80
2018-03-02T12:15:07.618Z,31.87
2018-03-02T12:17:38.684Z,31.30
2018-03-02T12:20:07.864Z,30.60
2018-03-02T12:22:42.088Z,28.67
2018-03-02T12:25:15.120Z,30.20
2018-03-02T12:27:50.040Z,31.13
2018-03-02T12:30:22.974Z,34.60
2018-03-02T12:32:51.254Z,28.97
2018-03-02T12:35:19.799Z,37.67
2018-03-02T12:37:48.411Z,34.43
2018-03-02T12:40:17.925Z,33.77
2018-03-02T12:42:48.239Z,33.73
2018-03-02T12:45:16.848Z,33.27
2018-03-02T12:47:45.421Z,41.33
2018-03-02T12:50:16.245Z,36.73
2018-03-02T12:52:52.836Z,34.23
2018-03-02T12:55:27.646Z,31.93
2018-03-02T12:58:02.781Z,31.00
2018-03-02T13:00:34.612Z,31.07
2018-03-02T13:03:06.925Z,35.00
2018-03-02T13:05:36.394Z,38.93
2018-03-02T13:08:05.898Z,30.63
2018-03-02T13:10:34.523Z,31.37
2018-03-02T13:13:02.839Z,31.37
2018-03-02T13:15:31.178Z,38.67
2018-03-02T13:18:07.316Z,34.60
2018-03-02T13:20:41.935Z,32.80
2018-03-02T13:23:11.166Z,31.53
2018-03-02T13:25:40.645Z,29.53
2018-03-02T13:28:21.695Z,29.53
2018-03-02T13:30:53.455Z,30.47
2018-03-02T13:36:27.114Z,30.13
2018-03-02T13:38:57.484Z,27.77
2018-03-02T13:41:39.240Z,26.83
2018-03-02T13:44:11.695Z,28.77
2018-03-02T13:46:42.939Z,27.33
2018-03-02T13:49:27.473Z,28.83
2018-03-02T13:51:58.482Z,29.50
2018-03-02T13:54:28.954Z,28.83
2018-03-02T13:57:12.688Z,32.17
2018-03-02T13:59:41.202Z,36.47
2018-03-02T14:05:23.235Z,31.33
2018-03-02T14:07:56.056Z,30.67
2018-03-02T14:10:25.764Z,33.53
2018-03-02T14:12:56.334Z,29.77
2018-03-02T14:15:31.715Z,33.23
2018-03-02T14:18:06.364Z,32.27
2018-03-02T14:20:41.937Z,31.70
2018-03-02T14:23:15.533Z,31.40
2018-03-02T14:25:45.285Z,32.60
2018-03-02T14:28:15.157Z,31.00
2018-03-02T14:30:43.695Z,33.23
2018-03-02T14:33:12.576Z,34.53
2018-03-02T14:35:43.353Z,33.70
2018-03-02T14:38:17.176Z,36.60
2018-03-02T14:41:07.590Z,36.50
2018-03-02T14:43:35.960Z,37.80
2018-03-02T14:46:04.647Z,33.07
2018-03-02T14:48:35.871Z,40.33
2018-03-02T14:51:09.087Z,39.63
2018-03-02T14:53:37.873Z,40.33
2018-03-02T14:56:06.776Z,41.37
2018-03-02T14:58:37.189Z,41.30
2018-03-02T15:01:05.543Z,44.10
2018-03-02T15:03:33.899Z,46.97
2018-03-02T15:06:04.198Z,38.43
2018-03-02T15:08:33.270Z,39.50
2018-03-02T15:11:01.567Z,41.33
2018-03-02T15:13:30.678Z,39.20
2018-03-02T15:15:59.468Z,45.03
2018-03-02T15:18:28.346Z,43.90
2018-03-02T15:20:56.646Z,38.10
2018-03-02T15:23:24.952Z,40.40
2018-03-02T15:25:54.808Z,38.80
2018-03-02T15:28:24.438Z,42.13
2018-03-02T15:30:55.507Z,39.60
2018-03-02T15:33:28.502Z,40.67
2018-03-02T15:35:57.762Z,40.80
2018-03-02T15:38:26.043Z,41.17
2018-03-02T15:41:02.777Z,41.37
2018-03-02T15:43:31.481Z,36.53
2018-03-02T15:46:00.227Z,37.03
2018-03-02T15:48:28.546Z,42.33
2018-03-02T15:50:57.398Z,43.47
2018-03-02T15:53:26.402Z,38.87
2018-03-02T15:56:38.469Z,36.27
2018-03-02T15:59:14.059Z,39.70
2018-03-02T16:01:45.076Z,32.30
2018-03-02T16:04:13.644Z,35.47
2018-03-02T16:06:42.031Z,38.57
2018-03-02T16:09:10.328Z,32.37
2018-03-02T16:11:39.561Z,35.93
2018-03-02T16:14:08.135Z,34.07
2018-03-02T16:16:36.835Z,34.77
2018-03-02T16:19:10.860Z,36.50
2018-03-02T16:21:45.812Z,33.17
2018-03-02T16:24:21.550Z,35.40
2018-03-02T16:26:54.457Z,35.87
2018-03-02T16:29:24.513Z,41.43
2018-03-02T16:32:01.548Z,35.20
2018-03-02T16:34:34.743Z,37.50
2018-03-02T16:37:07.360Z,36.13
2018-03-02T16:39:36.464Z,37.70
2018-03-02T16:42:06.293Z,36.40
2018-03-02T16:44:34.792Z,37.73
2018-03-02T16:47:06.979Z,33.33
2018-03-02T16:49:39.504Z,37.80
2018-03-02T16:52:08.139Z,40.47
2018-03-02T16:54:36.423Z,39.87
2018-03-02T16:57:12.642Z,47.47
2018-03-02T16:59:40.933Z,49.53
2018-03-02T17:02:15.722Z,37.20
2018-03-02T17:04:45.636Z,37.53
2018-03-02T17:07:20.864Z,35.07
2018-03-02T17:09:52.098Z,40.10
2018-03-02T17:12:32.854Z,41.87
2018-03-02T17:15:07.974Z,40.30
2018-03-02T17:17:44.154Z,42.20
2018-03-02T17:20:18.616Z,43.13
2018-03-02T17:22:47.100Z,38.63
2018-03-02T17:25:21.976Z,41.33
2018-03-02T17:27:56.616Z,44.87
2018-03-02T17:30:30.492Z,45.83
2018-03-02T17:33:00.144Z,43.70
2018-03-02T17:35:38.142Z,44.13
2018-03-02T17:38:15.114Z,44.20
2018-03-02T17:40:44.157Z,43.83
2018-03-02T17:43:19.133Z,45.07
2018-03-02T17:45:51.986Z,44.87
2018-03-02T17:48:26.486Z,78.33
2018-03-02T17:50:59.059Z,44.13
2018-03-02T17:53:30.685Z,54.77
2018-03-02T17:56:03.901Z,45.43
2018-03-02T17:58:54.188Z,43.30
2018-03-02T18:01:22.491Z,52.20
2018-03-02T18:03:51.505Z,43.10
2018-03-02T18:06:22.374Z,50.90
2018-03-02T18:08:51.104Z,49.70
2018-03-02T18:11:20.517Z,47.03
2018-03-02T18:13:53.312Z,45.00
2018-03-02T18:16:21.622Z,39.40
2018-03-02T18:18:51.824Z,46.73
2018-03-02T18:21:21.163Z,49.50
2018-03-02T18:23:52.353Z,47.30
2018-03-02T18:26:21.652Z,47.33
2018-03-02T18:29:08.208Z,48.47
2018-03-02T18:31:37.494Z,48.23
2018-03-02T18:34:13.069Z,48.60
2018-03-02T18:36:48.493Z,46.80
2018-03-02T18:39:23.411Z,46.90
2018-03-02T18:41:54.461Z,51.70
2018-03-02T18:44:32.750Z,46.93
2018-03-02T18:47:07.024Z,47.67
2018-03-02T18:49:43.651Z,46.97
2018-03-02T18:52:15.754Z,60.27
2018-03-02T18:54:47.980Z,46.13
2018-03-02T18:57:18.611Z,56.90
2018-03-02T18:59:54.193Z,48.00
2018-03-02T19:02:23.133Z,60.93
2018-03-02T19:04:53.382Z,49.60
2018-03-02T19:07:23.657Z,51.13
2018-03-02T19:09:52.993Z,45.23
2018-03-02T19:12:25.831Z,49.77
2018-03-02T19:15:03.732Z,73.97
2018-03-02T19:17:32.036Z,90.60
2018-03-02T19:20:02.778Z,69.23
2018-03-02T19:22:31.774Z,69.53
2018-03-02T19:25:00.865Z,58.40
2018-03-02T19:27:30.457Z,48.50
2018-03-02T19:30:01.339Z,46.63
2018-03-02T19:32:34.106Z,47.57
2018-03-02T19:35:07.149Z,51.17
2018-03-02T19:37:38.762Z,51.97
2018-03-02T19:40:07.067Z,58.57
2018-03-02T19:42:35.940Z,51.43
2018-03-02T19:45:08.863Z,53.50
2018-03-02T19:47:40.818Z,53.97
2018-03-02T19:50:10.635Z,49.47
2018-03-02T19:52:39.757Z,49.97
2018-03-02T19:55:09.636Z,54.17
2018-03-02T19:57:40.920Z,52.00
2018-03-02T20:00:13.755Z,55.10
2018-03-02T20:02:42.347Z,52.43
2018-03-02T20:05:12.400Z,56.90
2018-03-02T20:07:43.470Z,54.23
2018-03-02T20:10:18.242Z,54.53
2018-03-02T20:12:47.761Z,54.23
2018-03-02T20:15:23.333Z,54.13
2018-03-02T20:18:14.299Z,50.80
2018-03-02T20:20:46.870Z,52.40
2018-03-02T20:23:15.180Z,49.20
2018-03-02T20:25:45.215Z,54.47
2018-03-02T20:28:16.247Z,51.43
2018-03-02T20:30:49.902Z,52.83
2018-03-02T20:33:40.769Z,42.03
2018-03-02T20:36:10.320Z,66.27
2018-03-02T20:38:40.107Z,49.77
2018-03-02T20:41:10.053Z,55.33
2018-03-02T20:43:38.760Z,54.97
2018-03-02T20:46:07.429Z,54.23
2018-03-02T20:48:39.673Z,53.73
2018-03-02T20:51:09.657Z,58.57
2018-03-02T20:53:38.334Z,54.43
2018-03-02T20:56:10.363Z,60.77
2018-03-02T20:58:42.011Z,53.97
2018-03-02T21:01:12.042Z,52.13
2018-03-02T21:04:02.235Z,54.43
2018-03-02T21:06:31.761Z,55.83
2018-03-02T21:09:00.971Z,58.73
2018-03-02T21:11:36.480Z,61.33
2018-03-02T21:14:05.308Z,57.63
2018-03-02T21:16:40.831Z,52.57
2018-03-02T21:19:10.334Z,54.67
2018-03-02T21:21:42.597Z,59.00
2018-03-02T21:24:16.044Z,52.93
2018-03-02T21:26:47.221Z,52.80
2018-03-02T21:29:21.759Z,54.40
2018-03-02T21:31:53.845Z,67.17
2018-03-02T21:34:43.682Z,59.47
2018-03-02T21:37:13.321Z,59.80
2018-03-02T21:39:42.171Z,56.23
2018-03-02T21:42:11.118Z,56.77
2018-03-02T21:44:47.250Z,59.23
2018-03-02T21:47:20.098Z,56.40
2018-03-02T21:50:09.608Z,62.93
2018-03-02T21:52:37.932Z,54.73
2018-03-02T21:55:06.233Z,56.47
2018-03-02T21:57:38.306Z,54.60
2018-03-02T22:00:06.850Z,59.00
2018-03-02T22:02:40.681Z,55.30
2018-03-02T22:05:15.554Z,61.00
2018-03-02T22:07:46.252Z,59.10
2018-03-02T22:10:14.927Z,56.27
2018-03-02T22:12:48.028Z,55.60
2018-03-02T22:15:16.318Z,55.83
2018-03-02T22:17:45.851Z,77.50
2018-03-02T22:20:42.975Z,58.60
2018-03-02T22:23:12.559Z,54.23
2018-03-02T22:25:44.035Z,60.07
2018-03-02T22:28:17.688Z,59.40
2018-03-02T22:30:47.711Z,54.47
2018-03-02T22:33:16.009Z,55.43
2018-03-02T22:35:44.364Z,57.03
2018-03-02T22:38:12.657Z,54.50
2018-03-02T22:40:41.531Z,58.10
2018-03-02T22:43:16.799Z,54.30
2018-03-02T22:45:45.071Z,57.67
2018-03-02T22:48:18.056Z,56.07
2018-03-02T22:50:50.315Z,59.10
2018-03-02T22:53:24.720Z,56.73
2018-03-02T22:55:58.426Z,56.30
2018-03-02T22:58:32.243Z,66.23
2018-03-02T23:01:01.746Z,53.47
2018-03-02T23:03:30.217Z,53.17
2018-03-02T23:06:23.136Z,53.17
2018-03-02T23:08:52.300Z,57.90
2018-03-02T23:11:20.854Z,53.30
2018-03-02T23:13:50.249Z,58.63
2018-03-02T23:16:19.301Z,58.10
2018-03-02T23:18:47.615Z,53.27
2018-03-02T23:21:16.959Z,52.43
2018-03-02T23:23:49.968Z,55.37
2018-03-02T23:26:20.784Z,54.50
2018-03-02T23:28:53.914Z,52.17
2018-03-02T23:31:22.214Z,55.53
2018-03-02T23:33:51.837Z,48.77
2018-03-02T23:36:20.821Z,52.37
2018-03-02T23:38:53.351Z,53.43
2018-03-02T23:41:21.884Z,53.03
2018-03-02T23:43:52.212Z,56.70
2018-03-02T23:46:27.039Z,54.10
2018-03-02T23:49:03.147Z,53.73
2018-03-02T23:51:35.050Z,49.53
2018-03-02T23:54:10.731Z,52.90
2018-03-02T23:56:39.610Z,53.57
2018-03-02T23:59:15.039Z,50.83
